sensor_id;sensor_type;location;lat;lon;timestamp;pressure;altitude;pressure_sealevel;temperature;humidity
13027;BME280;6580;42.680;23.324;2023-05-01T00:00:51;95222.59;;;13.78;89.56
13027;BME280;6580;42.680;23.324;2023-05-01T00:03:41;95230.34;;;13.65;91.17
13027;BME280;6580;42.680;23.324;2023-05-01T00:06:29;95236.84;;;13.71;91.04
13027;BME280;6580;42.680;23.324;2023-05-01T00:09:19;95229.66;;;13.71;89.61
13027;BME280;6580;42.680;23.324;2023-05-01T00:12:05;95221.75;;;13.78;89.64
13027;BME280;6580;42.680;23.324;2023-05-01T00:14:53;95217.16;;;13.86;88.19
13027;BME280;6580;42.680;23.324;2023-05-01T00:17:39;95234.34;;;13.69;89.25
13027;BME280;6580;42.680;23.324;2023-05-01T00:20:27;95207.78;;;13.37;91.13
13027;BME280;6580;42.680;23.324;2023-05-01T00:23:26;95233.84;;;13.43;93.57
13027;BME280;6580;42.680;23.324;2023-05-01T00:26:15;95231.66;;;13.39;94.31
13027;BME280;6580;42.680;23.324;2023-05-01T00:29:02;95237.00;;;13.39;96.40
13027;BME280;6580;42.680;23.324;2023-05-01T00:31:47;95230.47;;;13.03;96.82
13027;BME280;6580;42.680;23.324;2023-05-01T00:34:33;95229.38;;;12.90;99.24
13027;BME280;6580;42.680;23.324;2023-05-01T00:37:19;95245.31;;;13.14;99.41
13027;BME280;6580;42.680;23.324;2023-05-01T00:40:08;95250.53;;;13.07;99.36
13027;BME280;6580;42.680;23.324;2023-05-01T00:42:55;95242.69;;;13.06;99.89
13027;BME280;6580;42.680;23.324;2023-05-01T00:45:44;95249.31;;;13.18;99.18
13027;BME280;6580;42.680;23.324;2023-05-01T00:48:30;95248.78;;;13.22;98.53
13027;BME280;6580;42.680;23.324;2023-05-01T00:51:17;95260.00;;;13.25;98.81
13027;BME280;6580;42.680;23.324;2023-05-01T00:54:08;95259.19;;;13.17;99.44
13027;BME280;6580;42.680;23.324;2023-05-01T00:56:56;95262.88;;;13.08;99.64
13027;BME280;6580;42.680;23.324;2023-05-01T00:59:46;95261.69;;;13.18;99.70
13027;BME280;6580;42.680;23.324;2023-05-01T01:02:34;95260.75;;;12.96;100.00
13027;BME280;6580;42.680;23.324;2023-05-01T01:05:23;95244.22;;;12.92;100.00
13027;BME280;6580;42.680;23.324;2023-05-01T01:08:16;95250.75;;;12.90;100.00
13027;BME280;6580;42.680;23.324;2023-05-01T01:11:13;95258.69;;;13.14;100.00
13027;BME280;6580;42.680;23.324;2023-05-01T01:14:11;95255.75;;;12.85;100.00
13027;BME280;6580;42.680;23.324;2023-05-01T01:17:15;95253.06;;;12.93;100.00
13027;BME280;6580;42.680;23.324;2023-05-01T01:20:21;95256.94;;;12.74;100.00
13027;BME280;6580;42.680;23.324;2023-05-01T01:23:28;95264.13;;;12.66;100.00
13027;BME280;6580;42.680;23.324;2023-05-01T01:29:45;95276.81;;;12.64;100.00
13027;BME280;6580;42.680;23.324;2023-05-01T01:33:05;95286.03;;;12.61;100.00
13027;BME280;6580;42.680;23.324;2023-05-01T01:36:05;95274.47;;;12.61;100.00
13027;BME280;6580;42.680;23.324;2023-05-01T01:39:01;95280.84;;;12.44;100.00
13027;BME280;6580;42.680;23.324;2023-05-01T01:41:51;95279.84;;;12.29;100.00
13027;BME280;6580;42.680;23.324;2023-05-01T01:44:41;95272.19;;;12.34;100.00
13027;BME280;6580;42.680;23.324;2023-05-01T01:47:32;95264.66;;;12.45;100.00
13027;BME280;6580;42.680;23.324;2023-05-01T01:50:19;95259.31;;;12.21;100.00
13027;BME280;6580;42.680;23.324;2023-05-01T01:53:17;95276.50;;;12.11;100.00
13027;BME280;6580;42.680;23.324;2023-05-01T01:56:08;95268.16;;;12.22;100.00
13027;BME280;6580;42.680;23.324;2023-05-01T01:58:57;95262.84;;;12.14;100.00
13027;BME280;6580;42.680;23.324;2023-05-01T02:01:46;95270.16;;;12.04;100.00
13027;BME280;6580;42.680;23.324;2023-05-01T02:04:34;95275.84;;;12.09;100.00
13027;BME280;6580;42.680;23.324;2023-05-01T02:07:20;95279.31;;;11.94;100.00
13027;BME280;6580;42.680;23.324;2023-05-01T02:10:14;95273.47;;;11.82;100.00
13027;BME280;6580;42.680;23.324;2023-05-01T02:13:02;95261.25;;;11.64;100.00
13027;BME280;6580;42.680;23.324;2023-05-01T02:15:48;95271.09;;;11.71;100.00
13027;BME280;6580;42.680;23.324;2023-05-01T02:18:40;95278.47;;;11.77;100.00
13027;BME280;6580;42.680;23.324;2023-05-01T02:21:26;95261.44;;;11.62;100.00
13027;BME280;6580;42.680;23.324;2023-05-01T02:24:16;95280.78;;;11.64;100.00
13027;BME280;6580;42.680;23.324;2023-05-01T02:27:12;95273.09;;;11.61;100.00
13027;BME280;6580;42.680;23.324;2023-05-01T02:30:01;95270.34;;;11.45;100.00
13027;BME280;6580;42.680;23.324;2023-05-01T02:32:48;95275.28;;;11.66;100.00
13027;BME280;6580;42.680;23.324;2023-05-01T02:35:39;95285.13;;;11.73;100.00
13027;BME280;6580;42.680;23.324;2023-05-01T02:38:34;95272.84;;;11.47;100.00
13027;BME280;6580;42.680;23.324;2023-05-01T02:41:21;95281.03;;;11.45;100.00
13027;BME280;6580;42.680;23.324;2023-05-01T02:44:10;95280.84;;;11.47;100.00
13027;BME280;6580;42.680;23.324;2023-05-01T02:46:57;95279.50;;;11.35;100.00
13027;BME280;6580;42.680;23.324;2023-05-01T02:49:47;95287.88;;;11.14;100.00
13027;BME280;6580;42.680;23.324;2023-05-01T02:52:36;95285.22;;;11.14;100.00
13027;BME280;6580;42.680;23.324;2023-05-01T02:55:22;95280.19;;;11.11;100.00
13027;BME280;6580;42.680;23.324;2023-05-01T02:58:13;95284.59;;;11.28;100.00
13027;BME280;6580;42.680;23.324;2023-05-01T03:01:01;95284.28;;;11.23;100.00
13027;BME280;6580;42.680;23.324;2023-05-01T03:03:46;95287.19;;;11.05;100.00
13027;BME280;6580;42.680;23.324;2023-05-01T03:06:39;95294.00;;;11.07;100.00
13027;BME280;6580;42.680;23.324;2023-05-01T03:09:24;95289.75;;;11.22;100.00
13027;BME280;6580;42.680;23.324;2023-05-01T03:12:10;95297.91;;;11.20;100.00
13027;BME280;6580;42.680;23.324;2023-05-01T03:14:56;95293.88;;;11.09;100.00
13027;BME280;6580;42.680;23.324;2023-05-01T03:17:46;95300.88;;;10.84;100.00
13027;BME280;6580;42.680;23.324;2023-05-01T03:20:31;95293.16;;;10.73;100.00
13027;BME280;6580;42.680;23.324;2023-05-01T03:23:17;95298.06;;;10.86;100.00
13027;BME280;6580;42.680;23.324;2023-05-01T03:26:04;95304.31;;;10.77;100.00
13027;BME280;6580;42.680;23.324;2023-05-01T03:28:52;95300.63;;;10.70;100.00
13027;BME280;6580;42.680;23.324;2023-05-01T03:31:40;95310.72;;;10.84;100.00
13027;BME280;6580;42.680;23.324;2023-05-01T03:34:29;95313.53;;;10.82;100.00
13027;BME280;6580;42.680;23.324;2023-05-01T03:37:15;95312.63;;;10.74;100.00
13027;BME280;6580;42.680;23.324;2023-05-01T03:40:00;95313.38;;;10.58;100.00
13027;BME280;6580;42.680;23.324;2023-05-01T03:42:48;95323.25;;;10.66;100.00
13027;BME280;6580;42.680;23.324;2023-05-01T03:45:33;95325.09;;;10.48;100.00
13027;BME280;6580;42.680;23.324;2023-05-01T03:48:23;95337.94;;;10.52;100.00
13027;BME280;6580;42.680;23.324;2023-05-01T03:51:12;95335.16;;;10.36;100.00
13027;BME280;6580;42.680;23.324;2023-05-01T03:54:00;95336.56;;;10.48;100.00
13027;BME280;6580;42.680;23.324;2023-05-01T03:56:45;95340.59;;;10.52;100.00
13027;BME280;6580;42.680;23.324;2023-05-01T03:59:32;95333.38;;;10.62;100.00
13027;BME280;6580;42.680;23.324;2023-05-01T04:02:18;95343.28;;;10.52;100.00
13027;BME280;6580;42.680;23.324;2023-05-01T04:05:04;95357.97;;;10.39;100.00
13027;BME280;6580;42.680;23.324;2023-05-01T04:07:54;95355.31;;;10.39;100.00
13027;BME280;6580;42.680;23.324;2023-05-01T04:10:40;95352.66;;;10.04;100.00
13027;BME280;6580;42.680;23.324;2023-05-01T04:13:26;95354.78;;;10.01;100.00
13027;BME280;6580;42.680;23.324;2023-05-01T04:16:12;95353.50;;;10.22;100.00
13027;BME280;6580;42.680;23.324;2023-05-01T04:19:01;95354.81;;;10.61;100.00
13027;BME280;6580;42.680;23.324;2023-05-01T04:21:47;95347.00;;;10.85;100.00
13027;BME280;6580;42.680;23.324;2023-05-01T04:24:34;95328.25;;;10.94;100.00
13027;BME280;6580;42.680;23.324;2023-05-01T04:27:21;95340.72;;;11.19;100.00
13027;BME280;6580;42.680;23.324;2023-05-01T04:30:10;95339.59;;;11.29;100.00
13027;BME280;6580;42.680;23.324;2023-05-01T04:32:57;95338.28;;;11.33;100.00
13027;BME280;6580;42.680;23.324;2023-05-01T04:35:46;95347.81;;;11.36;100.00
13027;BME280;6580;42.680;23.324;2023-05-01T04:38:33;95349.88;;;11.16;100.00
13027;BME280;6580;42.680;23.324;2023-05-01T04:41:21;95348.50;;;11.12;100.00
13027;BME280;6580;42.680;23.324;2023-05-01T04:44:07;95351.78;;;11.32;100.00
13027;BME280;6580;42.680;23.324;2023-05-01T04:46:53;95351.38;;;11.52;100.00
13027;BME280;6580;42.680;23.324;2023-05-01T04:49:39;95345.84;;;11.46;100.00
13027;BME280;6580;42.680;23.324;2023-05-01T04:52:25;95353.13;;;11.61;100.00
13027;BME280;6580;42.680;23.324;2023-05-01T04:55:10;95348.66;;;11.70;100.00
13027;BME280;6580;42.680;23.324;2023-05-01T04:58:00;95358.19;;;11.88;100.00
13027;BME280;6580;42.680;23.324;2023-05-01T05:00:46;95332.72;;;12.02;100.00
13027;BME280;6580;42.680;23.324;2023-05-01T05:03:32;95360.31;;;12.42;100.00
13027;BME280;6580;42.680;23.324;2023-05-01T05:06:17;95344.78;;;12.69;100.00
13027;BME280;6580;42.680;23.324;2023-05-01T05:09:05;95358.81;;;12.79;100.00
13027;BME280;6580;42.680;23.324;2023-05-01T05:11:52;95355.25;;;13.34;100.00
13027;BME280;6580;42.680;23.324;2023-05-01T05:14:40;95352.25;;;14.44;100.00
13027;BME280;6580;42.680;23.324;2023-05-01T05:17:26;95359.19;;;14.98;94.54
13027;BME280;6580;42.680;23.324;2023-05-01T05:20:13;95368.47;;;15.61;86.40
13027;BME280;6580;42.680;23.324;2023-05-01T05:22:58;95358.88;;;16.31;82.67
13027;BME280;6580;42.680;23.324;2023-05-01T05:25:45;95367.28;;;16.42;79.08
13027;BME280;6580;42.680;23.324;2023-05-01T05:28:32;95362.88;;;16.77;76.57
13027;BME280;6580;42.680;23.324;2023-05-01T05:31:20;95367.50;;;17.52;72.83
13027;BME280;6580;42.680;23.324;2023-05-01T05:34:06;95367.41;;;18.00;68.16
13027;BME280;6580;42.680;23.324;2023-05-01T05:36:52;95365.34;;;18.49;65.12
13027;BME280;6580;42.680;23.324;2023-05-01T05:39:37;95364.09;;;18.45;64.29
13027;BME280;6580;42.680;23.324;2023-05-01T05:42:23;95367.16;;;18.29;63.74
13027;BME280;6580;42.680;23.324;2023-05-01T05:45:09;95362.13;;;18.73;62.89
13027;BME280;6580;42.680;23.324;2023-05-01T05:47:56;95367.63;;;19.31;60.67
13027;BME280;6580;42.680;23.324;2023-05-01T05:50:41;95358.41;;;19.84;56.87
13027;BME280;6580;42.680;23.324;2023-05-01T05:53:27;95361.22;;;20.34;55.53
13027;BME280;6580;42.680;23.324;2023-05-01T05:56:12;95360.88;;;20.11;55.56
13027;BME280;6580;42.680;23.324;2023-05-01T05:59:00;95359.25;;;20.04;55.78
13027;BME280;6580;42.680;23.324;2023-05-01T06:01:47;95369.94;;;20.86;53.70
13027;BME280;6580;42.680;23.324;2023-05-01T06:04:35;95372.13;;;21.88;50.94
13027;BME280;6580;42.680;23.324;2023-05-01T06:07:23;95373.84;;;21.83;49.88
13027;BME280;6580;42.680;23.324;2023-05-01T06:10:09;95369.09;;;21.78;49.50
13027;BME280;6580;42.680;23.324;2023-05-01T06:12:56;95372.00;;;21.77;48.35
13027;BME280;6580;42.680;23.324;2023-05-01T06:15:43;95365.19;;;21.44;49.30
13027;BME280;6580;42.680;23.324;2023-05-01T06:18:29;95368.03;;;21.55;49.72
13027;BME280;6580;42.680;23.324;2023-05-01T06:21:16;95368.81;;;21.07;51.29
13027;BME280;6580;42.680;23.324;2023-05-01T06:24:02;95371.13;;;21.83;49.82
13027;BME280;6580;42.680;23.324;2023-05-01T06:26:48;95370.59;;;21.74;49.27
13027;BME280;6580;42.680;23.324;2023-05-01T06:29:34;95359.56;;;22.12;48.32
13027;BME280;6580;42.680;23.324;2023-05-01T06:32:22;95365.38;;;22.87;45.60
13027;BME280;6580;42.680;23.324;2023-05-01T06:35:11;95353.03;;;23.32;44.56
13027;BME280;6580;42.680;23.324;2023-05-01T06:37:58;95363.09;;;23.83;43.71
13027;BME280;6580;42.680;23.324;2023-05-01T06:40:43;95359.44;;;23.49;43.67
13027;BME280;6580;42.680;23.324;2023-05-01T06:43:29;95368.41;;;23.38;44.20
13027;BME280;6580;42.680;23.324;2023-05-01T06:46:15;95375.22;;;22.34;45.07
13027;BME280;6580;42.680;23.324;2023-05-01T06:49:00;95374.81;;;21.88;46.78
13027;BME280;6580;42.680;23.324;2023-05-01T06:51:45;95369.69;;;22.76;44.90
13027;BME280;6580;42.680;23.324;2023-05-01T06:54:32;95370.16;;;22.38;45.66
13027;BME280;6580;42.680;23.324;2023-05-01T06:57:18;95368.03;;;22.75;44.78
13027;BME280;6580;42.680;23.324;2023-05-01T07:00:05;95358.81;;;23.87;42.91
13027;BME280;6580;42.680;23.324;2023-05-01T07:02:50;95372.50;;;24.72;40.75
13027;BME280;6580;42.680;23.324;2023-05-01T07:05:35;95368.41;;;24.47;40.89
13027;BME280;6580;42.680;23.324;2023-05-01T07:08:23;95369.81;;;23.81;41.32
13027;BME280;6580;42.680;23.324;2023-05-01T07:11:10;95362.94;;;24.70;40.17
13027;BME280;6580;42.680;23.324;2023-05-01T07:13:55;95371.59;;;24.21;40.06
13027;BME280;6580;42.680;23.324;2023-05-01T07:16:41;95362.50;;;25.29;38.37
13027;BME280;6580;42.680;23.324;2023-05-01T07:19:29;95376.69;;;24.52;39.47
13027;BME280;6580;42.680;23.324;2023-05-01T07:22:15;95373.81;;;25.98;37.09
13027;BME280;6580;42.680;23.324;2023-05-01T07:25:02;95378.16;;;25.66;37.55
13027;BME280;6580;42.680;23.324;2023-05-01T07:27:52;95382.03;;;25.54;37.31
13027;BME280;6580;42.680;23.324;2023-05-01T07:30:41;95371.69;;;25.00;38.54
13027;BME280;6580;42.680;23.324;2023-05-01T07:33:26;95370.69;;;25.89;37.19
13027;BME280;6580;42.680;23.324;2023-05-01T07:36:13;95376.78;;;26.83;35.31
13027;BME280;6580;42.680;23.324;2023-05-01T07:38:58;95372.56;;;26.38;35.64
13027;BME280;6580;42.680;23.324;2023-05-01T07:41:45;95380.81;;;26.81;35.01
13027;BME280;6580;42.680;23.324;2023-05-01T07:44:34;95372.19;;;26.89;35.27
13027;BME280;6580;42.680;23.324;2023-05-01T07:47:21;95367.47;;;26.84;34.81
13027;BME280;6580;42.680;23.324;2023-05-01T07:50:09;95365.44;;;27.18;34.64
13027;BME280;6580;42.680;23.324;2023-05-01T07:52:55;95366.53;;;26.36;34.85
13027;BME280;6580;42.680;23.324;2023-05-01T07:55:41;95364.44;;;27.24;34.29
13027;BME280;6580;42.680;23.324;2023-05-01T07:58:26;95357.84;;;28.35;32.76
13027;BME280;6580;42.680;23.324;2023-05-01T08:01:13;95355.03;;;28.72;31.66
13027;BME280;6580;42.680;23.324;2023-05-01T08:04:01;95359.09;;;28.64;31.33
13027;BME280;6580;42.680;23.324;2023-05-01T08:06:47;95362.13;;;27.64;32.47
13027;BME280;6580;42.680;23.324;2023-05-01T08:09:33;95369.00;;;26.38;34.31
13027;BME280;6580;42.680;23.324;2023-05-01T08:12:19;95367.94;;;26.22;34.67
13027;BME280;6580;42.680;23.324;2023-05-01T08:15:05;95360.28;;;26.41;34.86
13027;BME280;6580;42.680;23.324;2023-05-01T08:18:00;95355.59;;;26.36;34.17
13027;BME280;6580;42.680;23.324;2023-05-01T08:20:45;95361.69;;;26.60;34.09
13027;BME280;6580;42.680;23.324;2023-05-01T08:23:32;95356.88;;;28.56;31.80
13027;BME280;6580;42.680;23.324;2023-05-01T08:26:18;95357.59;;;27.74;31.37
13027;BME280;6580;42.680;23.324;2023-05-01T08:29:05;95354.25;;;27.98;30.88
13027;BME280;6580;42.680;23.324;2023-05-01T08:31:51;95361.41;;;27.47;31.80
13027;BME280;6580;42.680;23.324;2023-05-01T08:34:37;95342.56;;;27.77;31.12
13027;BME280;6580;42.680;23.324;2023-05-01T08:37:23;95341.88;;;27.65;30.93
13027;BME280;6580;42.680;23.324;2023-05-01T08:40:09;95348.22;;;27.96;30.53
13027;BME280;6580;42.680;23.324;2023-05-01T08:42:55;95345.28;;;27.77;30.78
13027;BME280;6580;42.680;23.324;2023-05-01T08:45:41;95347.13;;;27.97;30.74
13027;BME280;6580;42.680;23.324;2023-05-01T08:48:31;95346.09;;;28.40;30.28
13027;BME280;6580;42.680;23.324;2023-05-01T08:51:20;95350.09;;;27.91;30.29
13027;BME280;6580;42.680;23.324;2023-05-01T08:54:06;95334.22;;;27.93;30.37
13027;BME280;6580;42.680;23.324;2023-05-01T08:56:54;95338.44;;;28.88;29.03
13027;BME280;6580;42.680;23.324;2023-05-01T08:59:43;95343.75;;;28.63;29.83
13027;BME280;6580;42.680;23.324;2023-05-01T09:02:29;95339.97;;;28.79;29.82
13027;BME280;6580;42.680;23.324;2023-05-01T09:05:18;95341.16;;;28.88;28.23
13027;BME280;6580;42.680;23.324;2023-05-01T09:08:05;95338.53;;;28.62;29.28
13027;BME280;6580;42.680;23.324;2023-05-01T09:10:51;95328.97;;;28.69;28.98
13027;BME280;6580;42.680;23.324;2023-05-01T09:13:38;95336.06;;;27.61;30.50
13027;BME280;6580;42.680;23.324;2023-05-01T09:16:24;95334.34;;;28.49;29.26
13027;BME280;6580;42.680;23.324;2023-05-01T09:19:09;95338.63;;;28.30;29.07
13027;BME280;6580;42.680;23.324;2023-05-01T09:21:55;95330.63;;;29.31;28.01
13027;BME280;6580;42.680;23.324;2023-05-01T09:24:42;95332.34;;;29.57;27.15
13027;BME280;6580;42.680;23.324;2023-05-01T09:27:28;95337.13;;;29.00;28.26
13027;BME280;6580;42.680;23.324;2023-05-01T09:30:32;95336.22;;;28.85;28.44
13027;BME280;6580;42.680;23.324;2023-05-01T09:33:18;95340.16;;;29.09;28.58
13027;BME280;6580;42.680;23.324;2023-05-01T09:36:05;95335.22;;;29.16;27.49
13027;BME280;6580;42.680;23.324;2023-05-01T09:38:51;95343.53;;;28.28;29.46
13027;BME280;6580;42.680;23.324;2023-05-01T09:41:52;95329.72;;;29.06;28.49
13027;BME280;6580;42.680;23.324;2023-05-01T09:44:40;95330.81;;;28.54;28.70
13027;BME280;6580;42.680;23.324;2023-05-01T09:47:28;95333.31;;;27.88;29.58
13027;BME280;6580;42.680;23.324;2023-05-01T09:50:31;95339.16;;;28.27;28.79
13027;BME280;6580;42.680;23.324;2023-05-01T09:53:17;95326.09;;;28.91;28.68
13027;BME280;6580;42.680;23.324;2023-05-01T09:56:04;95329.41;;;28.46;28.11
13027;BME280;6580;42.680;23.324;2023-05-01T09:58:53;95320.03;;;28.89;27.81
13027;BME280;6580;42.680;23.324;2023-05-01T10:01:40;95306.53;;;28.82;26.67
13027;BME280;6580;42.680;23.324;2023-05-01T10:04:29;95313.06;;;29.37;26.61
13027;BME280;6580;42.680;23.324;2023-05-01T10:07:15;95314.81;;;29.73;26.82
13027;BME280;6580;42.680;23.324;2023-05-01T10:10:15;95289.47;;;29.36;27.09
13027;BME280;6580;42.680;23.324;2023-05-01T10:13:12;95304.94;;;29.97;26.56
13027;BME280;6580;42.680;23.324;2023-05-01T10:16:00;95307.41;;;30.18;26.89
13027;BME280;6580;42.680;23.324;2023-05-01T10:18:51;95311.75;;;30.39;25.68
13027;BME280;6580;42.680;23.324;2023-05-01T10:21:39;95299.97;;;30.14;26.46
13027;BME280;6580;42.680;23.324;2023-05-01T10:24:25;95297.22;;;29.79;27.24
13027;BME280;6580;42.680;23.324;2023-05-01T10:27:12;95305.13;;;30.70;26.33
13027;BME280;6580;42.680;23.324;2023-05-01T10:30:01;95293.91;;;29.62;28.34
13027;BME280;6580;42.680;23.324;2023-05-01T10:32:49;95303.25;;;29.76;25.80
13027;BME280;6580;42.680;23.324;2023-05-01T10:35:38;95302.72;;;30.19;26.65
13027;BME280;6580;42.680;23.324;2023-05-01T10:38:29;95294.44;;;29.59;27.35
13027;BME280;6580;42.680;23.324;2023-05-01T10:42:04;95306.81;;;29.47;27.78
13027;BME280;6580;42.680;23.324;2023-05-01T10:45:26;95289.78;;;29.45;27.47
13027;BME280;6580;42.680;23.324;2023-05-01T10:48:51;95288.44;;;30.22;26.72
13027;BME280;6580;42.680;23.324;2023-05-01T10:51:57;95295.78;;;30.41;25.99
13027;BME280;6580;42.680;23.324;2023-05-01T10:54:42;95295.78;;;28.61;27.59
13027;BME280;6580;42.680;23.324;2023-05-01T11:07:41;95301.53;;;24.28;33.51
13027;BME280;6580;42.680;23.324;2023-05-01T11:10:26;95299.06;;;24.15;33.73
13027;BME280;6580;42.680;23.324;2023-05-01T11:13:12;95309.94;;;24.27;33.71
13027;BME280;6580;42.680;23.324;2023-05-01T11:15:58;95308.66;;;23.95;34.67
13027;BME280;6580;42.680;23.324;2023-05-01T11:19:06;95316.34;;;24.09;34.78
13027;BME280;6580;42.680;23.324;2023-05-01T11:21:54;95313.13;;;24.24;34.33
13027;BME280;6580;42.680;23.324;2023-05-01T11:24:44;95309.50;;;24.18;33.41
13027;BME280;6580;42.680;23.324;2023-05-01T11:27:31;95314.69;;;23.97;33.74
13027;BME280;6580;42.680;23.324;2023-05-01T11:30:17;95312.28;;;23.43;34.62
13027;BME280;6580;42.680;23.324;2023-05-01T11:33:03;95309.88;;;25.77;32.13
13027;BME280;6580;42.680;23.324;2023-05-01T11:35:58;95297.84;;;27.40;29.94
13027;BME280;6580;42.680;23.324;2023-05-01T11:38:51;95293.50;;;26.96;29.70
13027;BME280;6580;42.680;23.324;2023-05-01T11:41:40;95313.53;;;25.99;30.41
13027;BME280;6580;42.680;23.324;2023-05-01T11:44:26;95298.63;;;26.66;29.68
13027;BME280;6580;42.680;23.324;2023-05-01T11:47:13;95288.66;;;27.24;28.82
13027;BME280;6580;42.680;23.324;2023-05-01T11:50:00;95282.28;;;28.08;28.07
13027;BME280;6580;42.680;23.324;2023-05-01T11:52:50;95292.78;;;27.00;28.91
13027;BME280;6580;42.680;23.324;2023-05-01T11:55:37;95289.38;;;25.91;30.32
13027;BME280;6580;42.680;23.324;2023-05-01T11:58:33;95291.84;;;24.99;32.04
13027;BME280;6580;42.680;23.324;2023-05-01T12:01:19;95284.56;;;24.77;32.60
13027;BME280;6580;42.680;23.324;2023-05-01T12:04:05;95293.34;;;24.51;32.78
13027;BME280;6580;42.680;23.324;2023-05-01T12:06:51;95318.00;;;24.10;34.01
13027;BME280;6580;42.680;23.324;2023-05-01T12:09:37;95309.94;;;23.47;34.77
13027;BME280;6580;42.680;23.324;2023-05-01T12:12:25;95305.31;;;23.59;34.92
13027;BME280;6580;42.680;23.324;2023-05-01T12:15:13;95316.47;;;22.87;35.57
13027;BME280;6580;42.680;23.324;2023-05-01T12:18:00;95323.44;;;23.64;34.01
13027;BME280;6580;42.680;23.324;2023-05-01T12:20:51;95304.97;;;23.66;33.16
13027;BME280;6580;42.680;23.324;2023-05-01T12:23:37;95312.88;;;23.57;33.44
13027;BME280;6580;42.680;23.324;2023-05-01T12:26:23;95326.78;;;22.67;34.57
13027;BME280;6580;42.680;23.324;2023-05-01T12:29:09;95329.84;;;22.70;35.01
13027;BME280;6580;42.680;23.324;2023-05-01T12:31:58;95322.25;;;22.61;34.62
13027;BME280;6580;42.680;23.324;2023-05-01T12:34:44;95313.06;;;22.26;34.79
13027;BME280;6580;42.680;23.324;2023-05-01T12:37:31;95325.44;;;22.40;34.57
13027;BME280;6580;42.680;23.324;2023-05-01T12:40:16;95348.19;;;22.57;34.51
13027;BME280;6580;42.680;23.324;2023-05-01T12:43:02;95342.03;;;22.14;35.97
13027;BME280;6580;42.680;23.324;2023-05-01T12:45:52;95342.19;;;21.77;37.49
13027;BME280;6580;42.680;23.324;2023-05-01T12:48:41;95336.44;;;22.45;37.20
13027;BME280;6580;42.680;23.324;2023-05-01T12:51:29;95337.66;;;22.13;36.92
13027;BME280;6580;42.680;23.324;2023-05-01T12:54:29;95318.94;;;22.05;36.22
13027;BME280;6580;42.680;23.324;2023-05-01T12:57:17;95307.50;;;22.39;37.06
13027;BME280;6580;42.680;23.324;2023-05-01T13:00:04;95320.31;;;22.50;37.91
13027;BME280;6580;42.680;23.324;2023-05-01T13:02:55;95297.91;;;22.01;38.25
13027;BME280;6580;42.680;23.324;2023-05-01T13:05:55;95311.56;;;22.30;37.46
13027;BME280;6580;42.680;23.324;2023-05-01T13:08:41;95324.34;;;21.87;39.51
13027;BME280;6580;42.680;23.324;2023-05-01T13:11:27;95326.00;;;21.88;37.55
13027;BME280;6580;42.680;23.324;2023-05-01T13:14:12;95319.31;;;21.42;37.94
13027;BME280;6580;42.680;23.324;2023-05-01T13:16:58;95332.56;;;21.56;39.66
13027;BME280;6580;42.680;23.324;2023-05-01T13:19:54;95338.38;;;22.02;39.42
13027;BME280;6580;42.680;23.324;2023-05-01T13:22:48;95360.88;;;21.85;40.20
13027;BME280;6580;42.680;23.324;2023-05-01T13:25:34;95348.44;;;21.29;40.80
13027;BME280;6580;42.680;23.324;2023-05-01T13:28:20;95336.22;;;21.68;40.25
13027;BME280;6580;42.680;23.324;2023-05-01T13:31:12;95335.03;;;21.34;39.87
13027;BME280;6580;42.680;23.324;2023-05-01T13:33:59;95343.84;;;21.53;39.71
13027;BME280;6580;42.680;23.324;2023-05-01T13:36:45;95355.34;;;21.25;40.97
13027;BME280;6580;42.680;23.324;2023-05-01T13:39:32;95356.50;;;21.04;40.81
13027;BME280;6580;42.680;23.324;2023-05-01T13:42:22;95363.88;;;20.97;41.74
13027;BME280;6580;42.680;23.324;2023-05-01T13:45:08;95353.25;;;21.27;41.47
13027;BME280;6580;42.680;23.324;2023-05-01T13:47:54;95343.50;;;21.19;40.72
13027;BME280;6580;42.680;23.324;2023-05-01T13:50:39;95359.00;;;21.37;40.39
13027;BME280;6580;42.680;23.324;2023-05-01T13:53:25;95354.97;;;21.46;39.90
13027;BME280;6580;42.680;23.324;2023-05-01T13:56:13;95354.00;;;21.34;39.76
13027;BME280;6580;42.680;23.324;2023-05-01T13:58:59;95354.34;;;21.44;39.67
13027;BME280;6580;42.680;23.324;2023-05-01T14:01:44;95361.94;;;21.35;39.54
13027;BME280;6580;42.680;23.324;2023-05-01T14:04:34;95351.97;;;21.29;40.20
13027;BME280;6580;42.680;23.324;2023-05-01T14:07:20;95368.47;;;20.90;39.94
13027;BME280;6580;42.680;23.324;2023-05-01T14:10:07;95360.56;;;20.89;40.46
13027;BME280;6580;42.680;23.324;2023-05-01T14:12:57;95368.13;;;20.74;40.90
13027;BME280;6580;42.680;23.324;2023-05-01T14:15:43;95354.28;;;20.95;40.88
13027;BME280;6580;42.680;23.324;2023-05-01T14:18:29;95357.41;;;20.98;41.19
13027;BME280;6580;42.680;23.324;2023-05-01T14:21:15;95357.72;;;21.08;41.18
13027;BME280;6580;42.680;23.324;2023-05-01T14:24:01;95362.91;;;21.16;41.25
13027;BME280;6580;42.680;23.324;2023-05-01T14:26:47;95360.00;;;21.11;41.19
13027;BME280;6580;42.680;23.324;2023-05-01T14:29:35;95353.06;;;20.91;41.09
13027;BME280;6580;42.680;23.324;2023-05-01T14:32:24;95355.19;;;20.76;42.13
13027;BME280;6580;42.680;23.324;2023-05-01T14:35:10;95357.22;;;20.43;42.64
13027;BME280;6580;42.680;23.324;2023-05-01T14:38:06;95356.16;;;20.50;42.24
13027;BME280;6580;42.680;23.324;2023-05-01T14:40:52;95345.78;;;20.41;42.15
13027;BME280;6580;42.680;23.324;2023-05-01T14:43:40;95355.91;;;20.58;41.30
13027;BME280;6580;42.680;23.324;2023-05-01T14:46:29;95348.34;;;20.23;41.94
13027;BME280;6580;42.680;23.324;2023-05-01T14:49:19;95345.81;;;20.35;41.92
13027;BME280;6580;42.680;23.324;2023-05-01T14:52:05;95342.34;;;20.65;41.54
13027;BME280;6580;42.680;23.324;2023-05-01T14:54:51;95346.94;;;20.58;41.38
13027;BME280;6580;42.680;23.324;2023-05-01T14:57:36;95344.25;;;20.58;41.51
13027;BME280;6580;42.680;23.324;2023-05-01T15:00:22;95336.94;;;20.65;41.08
13027;BME280;6580;42.680;23.324;2023-05-01T15:03:11;95317.88;;;20.47;40.90